createdAt,value
2022-07-29T00:01:58.092Z,100354.41
2022-07-29T00:06:59.764Z,100353.81
2022-07-29T00:12:02.407Z,100357.97
2022-07-29T00:17:04.020Z,100358.00
2022-07-29T00:22:05.665Z,100352.75
2022-07-29T00:27:07.341Z,100350.88
2022-07-29T00:32:08.969Z,100335.00
2022-07-29T00:37:10.689Z,100328.94
2022-07-29T00:42:12.362Z,100333.25
2022-07-29T00:47:14.224Z,100325.72
2022-07-29T00:52:17.227Z,100324.25
2022-07-29T00:57:19.047Z,100317.19
2022-07-29T01:02:20.718Z,100316.53
2022-07-29T01:07:22.462Z,100304.41
2022-07-29T01:12:26.592Z,100291.25
2022-07-29T01:17:53.334Z,100297.72
2022-07-29T01:23:26.247Z,100298.16
2022-07-29T01:28:59.331Z,100286.88
2022-07-29T01:34:04.837Z,100288.94
2022-07-29T01:39:11.409Z,100292.06
2022-07-29T01:44:16.799Z,100278.72
2022-07-29T01:49:23.412Z,100273.88
2022-07-29T01:54:43.909Z,100281.63
2022-07-29T01:59:49.677Z,100287.47
2022-07-29T02:04:51.853Z,100284.78
2022-07-29T02:09:54.020Z,100283.47
2022-07-29T02:14:57.415Z,100278.91
2022-07-29T02:20:01.389Z,100280.34
2022-07-29T02:25:03.930Z,100273.81
2022-07-29T02:30:07.049Z,100269.88
2022-07-29T02:35:09.966Z,100262.47
2022-07-29T02:40:12.813Z,100265.97
2022-07-29T02:45:14.525Z,100258.38
2022-07-29T02:50:23.793Z,100266.38
2022-07-29T02:55:34.354Z,100266.19
2022-07-29T03:00:39.015Z,100269.16
2022-07-29T03:05:40.926Z,100266.16
2022-07-29T03:10:45.340Z,100264.09
2022-07-29T03:15:48.072Z,100267.88
2022-07-29T03:20:49.758Z,100265.56
2022-07-29T03:25:51.826Z,100266.31
2022-07-29T03:30:53.518Z,100266.16
2022-07-29T03:35:57.174Z,100262.59
2022-07-29T03:41:03.146Z,100252.78
2022-07-29T03:46:05.847Z,100247.28
2022-07-29T03:51:10.491Z,100249.06
2022-07-29T03:56:17.470Z,100244.44
2022-07-29T04:01:20.225Z,100248.38
2022-07-29T04:06:21.998Z,100236.34
2022-07-29T04:11:23.833Z,100247.53
2022-07-29T04:16:25.604Z,100253.97
2022-07-29T04:21:27.461Z,100259.06
2022-07-29T04:26:29.141Z,100268.91
2022-07-29T04:31:30.809Z,100267.41
2022-07-29T04:36:32.608Z,100259.53
2022-07-29T04:41:34.547Z,100256.50
2022-07-29T04:46:36.752Z,100251.28
2022-07-29T04:51:38.845Z,100268.41
2022-07-29T04:56:40.603Z,100264.66
2022-07-29T05:01:42.270Z,100260.66
2022-07-29T05:06:44.595Z,100255.88
2022-07-29T05:11:46.539Z,100253.44
2022-07-29T05:16:48.773Z,100245.53
2022-07-29T05:21:50.855Z,100244.13
2022-07-29T05:26:52.456Z,100254.34
2022-07-29T05:31:54.413Z,100259.13
2022-07-29T05:36:56.033Z,100261.44
2022-07-29T05:41:57.863Z,100253.13
2022-07-29T05:46:59.475Z,100261.69
2022-07-29T05:52:01.196Z,100253.53
2022-07-29T05:57:03.100Z,100257.28
2022-07-29T06:02:06.266Z,100251.81
2022-07-29T06:07:08.216Z,100260.16
2022-07-29T06:12:10.183Z,100259.72
2022-07-29T06:17:12.753Z,100262.69
2022-07-29T06:22:17.127Z,100263.91
2022-07-29T06:27:18.703Z,100255.50
2022-07-29T06:32:20.383Z,100264.66
2022-07-29T06:37:25.230Z,100262.13
2022-07-29T06:42:28.285Z,100260.91
2022-07-29T06:47:30.049Z,100272.56
2022-07-29T06:52:31.823Z,100277.53
2022-07-29T06:57:33.671Z,100274.41
2022-07-29T07:02:37.228Z,100268.00
2022-07-29T07:07:38.870Z,100274.00
2022-07-29T07:12:40.495Z,100271.19
2022-07-29T07:17:42.226Z,100276.16
2022-07-29T07:22:44.227Z,100276.53
2022-07-29T07:27:46.265Z,100275.66
2022-07-29T07:32:48.003Z,100269.94
2022-07-29T07:37:49.705Z,100277.56
2022-07-29T07:42:51.396Z,100264.00
2022-07-29T07:47:53.082Z,100262.44
2022-07-29T07:52:59.043Z,100266.56
2022-07-29T07:58:00.765Z,100266.94
2022-07-29T08:03:02.647Z,100260.00
2022-07-29T08:08:04.576Z,100259.31
2022-07-29T08:13:10.048Z,100246.34
2022-07-29T08:18:12.253Z,100244.13
2022-07-29T08:23:14.274Z,100229.94
2022-07-29T08:28:15.887Z,100237.56
2022-07-29T08:33:17.636Z,100226.22
2022-07-29T08:38:19.251Z,100229.13
2022-07-29T08:43:21.137Z,100228.19
2022-07-29T08:48:24.746Z,100227.59
2022-07-29T08:53:28.008Z,100226.63
2022-07-29T08:58:33.316Z,100227.88
2022-07-29T09:03:39.914Z,100212.56
2022-07-29T09:08:42.116Z,100210.84
2022-07-29T09:13:45.426Z,100197.84
2022-07-29T09:18:47.630Z,100203.94
2022-07-29T09:24:28.888Z,100191.53
2022-07-29T09:29:35.750Z,100186.69
2022-07-29T09:34:38.205Z,100178.47
2022-07-29T09:39:50.015Z,100175.13
2022-07-29T09:44:51.744Z,100168.81
2022-07-29T09:50:00.786Z,100184.41
2022-07-29T09:55:10.097Z,100183.97
2022-07-29T10:00:18.931Z,100175.91
2022-07-29T10:05:25.363Z,100175.50
2022-07-29T10:10:31.868Z,100179.81
2022-07-29T10:15:40.179Z,100170.19
2022-07-29T10:20:42.229Z,100160.78
2022-07-29T10:25:46.598Z,100164.16
2022-07-29T10:30:51.391Z,100166.69
2022-07-29T10:36:09.631Z,100155.84
2022-07-29T10:41:36.351Z,100160.97
2022-07-29T10:46:46.189Z,100154.28
2022-07-29T10:52:11.454Z,100150.38
2022-07-29T10:57:53.972Z,100157.66
2022-07-29T11:02:56.070Z,100155.63
2022-07-29T11:08:26.238Z,100135.69
2022-07-29T11:13:53.187Z,100146.63
2022-07-29T11:19:13.620Z,100148.97
2022-07-29T11:24:18.598Z,100143.50
2022-07-29T11:29:32.393Z,100142.06
2022-07-29T11:34:42.442Z,100137.41
2022-07-29T11:40:02.077Z,100124.16
2022-07-29T11:45:42.190Z,100116.53
2022-07-29T11:50:37.373Z,100125.50
2022-07-29T11:55:51.017Z,100120.59
2022-07-29T12:00:55.269Z,100111.59
2022-07-29T12:05:57.676Z,100116.22
2022-07-29T12:10:59.550Z,100113.50
2022-07-29T12:16:02.281Z,100106.75
2022-07-29T12:21:07.404Z,100107.50
2022-07-29T12:26:10.456Z,100105.84
2022-07-29T12:31:43.988Z,100107.47
2022-07-29T12:36:38.101Z,100091.63
2022-07-29T12:41:40.047Z,100096.75
2022-07-29T12:46:42.091Z,100097.56
2022-07-29T12:51:43.781Z,100097.50
2022-07-29T12:56:46.000Z,100092.97
2022-07-29T13:01:50.191Z,100082.81
2022-07-29T13:07:07.005Z,100083.28
2022-07-29T13:12:11.129Z,100076.13
2022-07-29T13:17:21.737Z,100068.97
2022-07-29T13:22:24.923Z,100078.38
2022-07-29T13:27:28.801Z,100079.47
2022-07-29T13:32:31.038Z,100070.09
2022-07-29T13:37:35.283Z,100073.53
2022-07-29T13:42:37.558Z,100068.97
2022-07-29T13:47:39.336Z,100065.81
2022-07-29T13:52:40.908Z,100060.78
2022-07-29T13:57:42.511Z,100058.94
2022-07-29T14:02:44.094Z,100052.56
2022-07-29T14:07:45.679Z,100059.84
2022-07-29T14:12:47.261Z,100056.56
2022-07-29T14:17:48.843Z,100054.59
2022-07-29T14:22:50.465Z,100050.47
2022-07-29T14:27:54.132Z,100037.56
2022-07-29T14:32:55.741Z,100036.09
2022-07-29T14:37:58.155Z,100024.47
2022-07-29T14:42:59.806Z,100038.22
2022-07-29T14:48:01.574Z,100033.84
2022-07-29T14:53:03.303Z,100030.97
2022-07-29T14:58:11.011Z,100030.59
2022-07-29T15:03:23.805Z,100037.72
2022-07-29T15:08:26.329Z,100035.44
2022-07-29T15:13:27.982Z,100035.25
2022-07-29T15:18:29.633Z,100026.63
2022-07-29T15:23:31.236Z,100028.44
2022-07-29T15:28:32.848Z,100028.03
2022-07-29T15:33:34.444Z,100024.34
2022-07-29T15:38:36.302Z,100015.59
2022-07-29T15:43:48.593Z,100013.88
2022-07-29T15:48:50.227Z,100018.66
2022-07-29T15:53:53.325Z,100010.78
2022-07-29T15:58:55.379Z,100001.03
2022-07-29T16:03:58.203Z,99998.44
2022-07-29T16:09:00.569Z,99995.22
2022-07-29T16:14:02.313Z,100005.00
2022-07-29T16:19:04.890Z,99999.72
2022-07-29T16:24:07.184Z,99990.91
2022-07-29T16:29:08.906Z,99977.69
2022-07-29T16:34:10.555Z,99982.84
2022-07-29T16:39:12.805Z,99985.88
2022-07-29T16:44:15.933Z,99984.59
2022-07-29T16:49:19.265Z,99985.41
2022-07-29T16:54:21.219Z,99988.34
2022-07-29T16:59:22.928Z,99982.53
2022-07-29T17:04:24.647Z,99988.94
2022-07-29T17:09:26.349Z,99983.47
2022-07-29T17:14:30.993Z,99977.38
2022-07-29T17:19:38.121Z,99981.03
2022-07-29T17:24:40.213Z,99971.16
2022-07-29T17:29:42.898Z,99976.94
2022-07-29T17:34:44.520Z,99968.59
2022-07-29T17:39:46.247Z,99977.06
2022-07-29T17:44:48.052Z,99975.28
2022-07-29T17:49:49.857Z,99982.44
2022-07-29T17:54:51.566Z,99974.66
2022-07-29T17:59:53.327Z,99971.50
2022-07-29T18:04:55.002Z,99971.50
2022-07-29T18:10:00.425Z,99970.22
2022-07-29T18:15:02.455Z,99973.09
2022-07-29T18:20:04.866Z,99979.53
2022-07-29T18:25:07.617Z,99975.34
2022-07-29T18:30:09.480Z,99985.41
2022-07-29T18:35:11.109Z,99984.50
2022-07-29T18:40:12.759Z,99981.69
2022-07-29T18:45:19.579Z,99977.53
2022-07-29T18:50:28.242Z,99979.66
2022-07-29T18:55:30.826Z,99979.59
2022-07-29T19:00:33.725Z,99983.31
2022-07-29T19:05:35.527Z,99987.28
2022-07-29T19:10:37.157Z,99997.06
2022-07-29T19:15:38.764Z,100003.88
2022-07-29T19:20:40.927Z,100010.69
2022-07-29T19:25:53.155Z,100018.81
2022-07-29T19:30:55.107Z,100023.13
2022-07-29T19:35:57.224Z,100014.25
2022-07-29T19:40:59.090Z,100017.72
2022-07-29T19:46:00.855Z,100019.63
2022-07-29T19:51:03.044Z,100024.78
2022-07-29T19:56:05.116Z,100028.78
2022-07-29T20:01:10.065Z,100039.72
2022-07-29T20:06:12.919Z,100042.59
2022-07-29T20:11:14.607Z,100043.19
2022-07-29T20:16:16.803Z,100055.53
2022-07-29T20:21:18.541Z,100051.88
2022-07-29T20:26:20.216Z,100038.72
2022-07-29T20:31:21.923Z,100040.53
2022-07-29T20:36:23.664Z,100047.56
2022-07-29T20:41:25.460Z,100051.59
2022-07-29T20:46:28.306Z,100044.75
2022-07-29T20:51:30.047Z,100052.44
2022-07-29T20:56:31.691Z,100037.72
2022-07-29T21:01:33.465Z,100044.75
2022-07-29T21:06:35.167Z,100048.22
2022-07-29T21:11:43.753Z,100047.88
2022-07-29T21:16:46.539Z,100052.41
2022-07-29T21:21:48.120Z,100048.84
2022-07-29T21:27:10.903Z,100041.50
2022-07-29T21:32:11.350Z,100060.13
2022-07-29T21:37:13.090Z,100059.78
2022-07-29T21:42:14.697Z,100052.78
2022-07-29T21:47:16.380Z,100052.66
2022-07-29T21:52:18.203Z,100042.84
2022-07-29T21:57:19.907Z,100044.03
2022-07-29T22:02:21.506Z,100045.09
2022-07-29T22:07:23.148Z,100048.22
2022-07-29T22:12:24.793Z,100051.63
2022-07-29T22:17:26.459Z,100061.63
2022-07-29T22:22:28.112Z,100056.41
2022-07-29T22:27:29.731Z,100053.41
2022-07-29T22:32:34.068Z,100051.53
2022-07-29T22:37:35.760Z,100046.56
2022-07-29T22:42:40.949Z,100052.97
2022-07-29T22:47:48.101Z,100051.91
2022-07-29T22:52:50.331Z,100038.59
2022-07-29T22:57:51.922Z,100033.13
2022-07-29T23:02:53.517Z,100040.91
2022-07-29T23:07:55.169Z,100038.16
2022-07-29T23:12:56.839Z,100033.13
2022-07-29T23:17:59.312Z,100029.47
2022-07-29T23:23:00.940Z,100030.66
2022-07-29T23:28:02.662Z,100036.25
2022-07-29T23:33:04.321Z,100034.59
2022-07-29T23:38:05.906Z,100053.25
2022-07-29T23:43:08.543Z,100049.44
2022-07-29T23:48:10.576Z,100043.72
2022-07-29T23:53:12.265Z,100051.22
2022-07-29T23:58:13.947Z,100054.53
